Time;durP1;ratioP1;P1;durP2;ratioP2;P2;SDS_P1;SDS_P2;PMS_P1;PMS_P2;Temp;Humidity;BMP_temperature;BMP_pressure;BME280_temperature;BME280_humidity;BME280_pressure;Samples;Min_cycle;Max_cycle;Signal;HPM_P1;HPM_P2
2022/11/08 00:01:32;;;;;;;16.90;4.10;;;;;;;;;;5279237;27;19920;-73
2022/11/08 00:03:57;;;;;;;;;;;;;;;;;;5284877;27;20055;-73
2022/11/08 00:14:34;;;;;;;11.32;3.85;;;;;;;;;;5306690;27;20008;-74
2022/11/08 00:16:59;;;;;;;;;;;;;;;;;;5301938;27;20001;-73
2022/11/08 00:19:25;;;;;;;22.92;4.55;;;;;;;;;;5303496;27;19928;-73
2022/11/08 00:21:50;;;;;;;10.23;3.50;;;;;;;;;;5303455;27;20001;-73
2022/11/08 00:24:15;;;;;;;;;;;;;;;;;;5283452;27;20000;-73
2022/11/08 00:26:40;;;;;;;11.63;3.70;;;;;;;;;;5300522;27;20271;-73
2022/11/08 00:29:05;;;;;;;;;;;;;;;;;;5301858;27;20101;-73
2022/11/08 00:31:30;;;;;;;10.25;4.10;;;;;;;;;;5303460;27;19928;-73
2022/11/08 00:33:55;;;;;;;;;;;;;;;;;;5281889;27;20103;-74
2022/11/08 00:36:21;;;;;;;16.95;4.05;;;;;;;;;;5303912;27;19927;-73
2022/11/08 00:38:46;;;;;;;11.90;3.70;;;;;;;;;;5301905;27;20020;-72
2022/11/08 00:41:11;;;;;;;13.05;3.53;;;;;;;;;;5302275;27;20389;-73
2022/11/08 00:43:36;;;;;;;9.55;3.70;;;;;;;;;;5303567;27;20071;-72
2022/11/08 00:46:02;;;;;;;12.55;3.78;;;;;;;;;;5300895;27;20047;-72
2022/11/08 00:48:27;;;;;;;;;;;;;;;;;;5303668;27;20043;-73
2022/11/08 00:50:52;;;;;;;13.30;4.45;;;;;;;;;;5300568;27;19963;-73
2022/11/08 00:53:17;;;;;;;;;;;;;;;;;;5300240;27;20105;-74
2022/11/08 00:55:42;;;;;;;13.00;3.45;;;;;;;;;;5302849;27;19973;-72
2022/11/08 00:58:07;;;;;;;;;;;;;;;;;;5300726;27;20146;-73
2022/11/08 01:00:32;;;;;;;13.98;3.87;;;;;;;;;;5302732;27;19974;-73
2022/11/08 01:05:41;;;;;;;14.93;4.12;;;;;;;;;;5303880;27;19949;-73
2022/11/08 01:08:06;;;;;;;;;;;;;;;;;;5302205;27;20023;-73
2022/11/08 01:10:32;;;;;;;11.63;3.92;;;;;;;;;;5300470;27;19951;-73
2022/11/08 01:12:57;;;;;;;10.38;3.95;;;;;;;;;;5303488;27;20295;-75
2022/11/08 01:15:22;;;;;;;;;;;;;;;;;;5301343;27;20008;-73
2022/11/08 01:17:47;;;;;;;11.77;4.37;;;;;;;;;;5301874;27;20279;-73
2022/11/08 01:20:12;;;;;;;16.46;4.02;;;;;;;;;;5304444;27;20011;-73
2022/11/08 01:22:37;;;;;;;16.45;4.55;;;;;;;;;;5301794;27;20046;-73
2022/11/08 01:25:03;;;;;;;12.75;3.97;;;;;;;;;;5284466;27;20012;-73
2022/11/08 01:27:28;;;;;;;12.43;4.20;;;;;;;;;;5301494;27;20132;-73
2022/11/08 01:29:53;;;;;;;14.57;3.75;;;;;;;;;;5301196;27;20001;-73
2022/11/08 01:32:18;;;;;;;20.37;4.47;;;;;;;;;;5302829;27;20011;-73
2022/11/08 01:34:43;;;;;;;17.25;3.83;;;;;;;;;;5314231;27;20013;-73
2022/11/08 01:37:29;;;;;;;13.48;3.97;;;;;;;;;;5296878;27;20005;-72
2022/11/08 01:39:54;;;;;;;9.98;3.75;;;;;;;;;;5263743;27;20021;-69
2022/11/08 01:42:19;;;;;;;;;;;;;;;;;;5263013;27;20035;-70
2022/11/08 01:44:55;;;;;;;12.60;4.22;;;;;;;;;;5261472;27;20220;-70
2022/11/08 01:47:20;;;;;;;15.05;4.10;;;;;;;;;;5263244;27;20323;-70
2022/11/08 01:49:46;;;;;;;17.67;3.97;;;;;;;;;;5263084;27;20005;-70
2022/11/08 01:52:32;;;;;;;10.10;3.40;;;;;;;;;;5262047;27;20024;-70
2022/11/08 01:55:03;;;;;;;11.60;3.33;;;;;;;;;;5261118;27;20013;-69
2022/11/08 01:57:37;;;;;;;12.70;4.20;;;;;;;;;;5262907;27;19985;-70
2022/11/08 02:00:04;;;;;;;15.60;4.97;;;;;;;;;;5243669;27;20002;-69
2022/11/08 02:02:31;;;;;;;13.45;4.15;;;;;;;;;;5259903;27;20002;-69
2022/11/08 02:04:56;;;;;;;12.77;4.85;;;;;;;;;;5263211;27;20002;-69
2022/11/08 02:07:21;;;;;;;;;;;;;;;;;;5261524;27;20387;-69
2022/11/08 02:09:47;;;;;;;16.52;4.47;;;;;;;;;;5261136;27;20271;-70
2022/11/08 02:12:12;;;;;;;;;;;;;;;;;;5262011;27;20152;-69
2022/11/08 02:14:37;;;;;;;14.80;4.43;;;;;;;;;;5260554;27;20239;-69
2022/11/08 02:17:02;;;;;;;;;;;;;;;;;;5263092;27;20128;-68
2022/11/08 02:19:36;;;;;;;11.27;4.60;;;;;;;;;;5260161;27;20295;-69
2022/11/08 02:22:04;;;;;;;13.30;3.60;;;;;;;;;;5263177;27;20024;-70
2022/11/08 02:24:29;;;;;;;10.13;3.35;;;;;;;;;;5262937;27;20016;-68
2022/11/08 02:26:54;;;;;;;;;;;;;;;;;;5261095;27;20301;-68
2022/11/08 02:29:25;;;;;;;22.65;4.50;;;;;;;;;;5262005;27;19929;-71
2022/11/08 02:31:51;;;;;;;12.32;3.97;;;;;;;;;;5261077;27;20044;-69
2022/11/08 02:34:16;;;;;;;;;;;;;;;;;;5261296;27;20037;-70
2022/11/08 02:36:42;;;;;;;13.25;3.55;;;;;;;;;;5260005;27;19928;-69
2022/11/08 02:39:07;;;;;;;11.43;3.70;;;;;;;;;;5260044;27;20056;-70
2022/11/08 02:41:32;;;;;;;;;;;;;;;;;;5260619;27;20006;-71
2022/11/08 02:43:58;;;;;;;14.25;4.03;;;;;;;;;;5260117;27;20254;-70
2022/11/08 02:46:23;;;;;;;13.60;3.97;;;;;;;;;;5262711;27;20052;-69
2022/11/08 02:48:48;;;;;;;13.65;4.28;;;;;;;;;;5262765;27;20368;-70
2022/11/08 02:51:13;;;;;;;14.68;4.85;;;;;;;;;;5262516;27;20316;-68
2022/11/08 02:53:38;;;;;;;;;;;;;;;;;;5261954;27;20002;-70
2022/11/08 02:56:03;;;;;;;11.40;3.85;;;;;;;;;;5259376;27;19929;-70
2022/11/08 02:58:29;;;;;;;10.52;3.90;;;;;;;;;;5259428;27;20016;-70
2022/11/08 03:00:54;;;;;;;17.87;5.43;;;;;;;;;;5261366;27;20012;-69
2022/11/08 03:03:19;;;;;;;16.98;4.53;;;;;;;;;;5260890;27;20036;-70
2022/11/08 03:05:46;;;;;;;;;;;;;;;;;;5261235;27;20012;-70
2022/11/08 03:08:11;;;;;;;9.13;3.80;;;;;;;;;;5259716;27;19928;-70
2022/11/08 03:10:36;;;;;;;;;;;;;;;;;;5261377;27;20016;-70
2022/11/08 03:13:03;;;;;;;10.25;3.92;;;;;;;;;;5260161;27;19928;-70
2022/11/08 03:15:28;;;;;;;8.57;3.40;;;;;;;;;;5258227;27;20057;-69
2022/11/08 03:17:53;;;;;;;;;;;;;;;;;;5260157;27;20002;-69
2022/11/08 03:20:18;;;;;;;10.98;3.55;;;;;;;;;;5261485;27;19929;-70
2022/11/08 03:22:44;;;;;;;13.88;3.30;;;;;;;;;;5259965;27;20059;-70
2022/11/08 03:25:09;;;;;;;;;;;;;;;;;;5262385;27;20012;-69
2022/11/08 03:27:34;;;;;;;15.32;4.18;;;;;;;;;;5240523;27;20336;-69
2022/11/08 03:30:00;;;;;;;8.35;4.30;;;;;;;;;;5260511;27;20057;-69
2022/11/08 03:32:25;;;;;;;15.93;4.45;;;;;;;;;;5261020;27;20048;-69
2022/11/08 03:34:50;;;;;;;;;;;;;;;;;;5262577;27;20012;-69
2022/11/08 03:37:15;;;;;;;14.35;5.62;;;;;;;;;;5261877;27;19988;-69
2022/11/08 03:39:40;;;;;;;15.57;4.37;;;;;;;;;;5259777;27;20068;-69
2022/11/08 03:42:06;;;;;;;;;;;;;;;;;;5259900;27;20009;-69
2022/11/08 03:44:32;;;;;;;16.08;4.00;;;;;;;;;;5259750;27;20267;-69
2022/11/08 03:46:57;;;;;;;;;;;;;;;;;;5260434;27;20041;-69
2022/11/08 03:49:22;;;;;;;9.98;4.25;;;;;;;;;;5259128;27;19964;-69
2022/11/08 03:51:47;;;;;;;17.23;4.35;;;;;;;;;;5260179;27;20010;-70
2022/11/08 03:54:12;;;;;;;;;;;;;;;;;;5259303;27;20056;-69
2022/11/08 03:56:37;;;;;;;13.35;5.30;;;;;;;;;;5240425;27;19929;-70
2022/11/08 03:59:03;;;;;;;8.57;3.22;;;;;;;;;;5258564;27;20399;-69
2022/11/08 04:01:28;;;;;;;12.20;4.53;;;;;;;;;;5262176;27;20043;-69
2022/11/08 04:03:53;;;;;;;15.18;4.18;;;;;;;;;;5258998;27;20001;-69
2022/11/08 04:06:18;;;;;;;12.73;4.07;;;;;;;;;;5259784;27;20028;-69
2022/11/08 04:08:43;;;;;;;13.73;4.70;;;;;;;;;;5261932;27;20014;-70
2022/11/08 04:16:36;;;;;;;9.35;3.87;;;;;;;;;;5261559;27;20005;-70
2022/11/08 04:21:46;;;;;;;12.02;3.70;;;;;;;;;;5262190;27;19950;-69
2022/11/08 04:24:12;;;;;;;11.90;3.87;;;;;;;;;;5259601;27;20048;-69
2022/11/08 04:26:37;;;;;;;;;;;;;;;;;;5261462;27;20018;-70
2022/11/08 04:29:02;;;;;;;9.10;4.15;;;;;;;;;;5260041;27;19963;-69
2022/11/08 04:31:27;;;;;;;7.60;3.78;;;;;;;;;;5262029;27;20002;-70
2022/11/08 04:33:52;;;;;;;13.55;4.75;;;;;;;;;;5259706;27;20030;-70
2022/11/08 04:36:18;;;;;;;10.00;3.42;;;;;;;;;;5259483;27;20387;-69
2022/11/08 04:38:46;;;;;;;12.30;4.47;;;;;;;;;;5260170;27;20032;-69
2022/11/08 04:41:12;;;;;;;11.30;4.18;;;;;;;;;;5262223;27;20031;-70
2022/11/08 04:43:37;;;;;;;9.80;3.10;;;;;;;;;;5263898;27;20017;-70
2022/11/08 04:46:02;;;;;;;;;;;;;;;;;;5261233;27;20044;-70
2022/11/08 04:48:28;;;;;;;11.12;3.72;;;;;;;;;;5242678;27;19932;-70
2022/11/08 04:50:53;;;;;;;7.70;3.10;;;;;;;;;;5241657;27;20468;-70
2022/11/08 04:53:18;;;;;;;13.50;3.95;;;;;;;;;;5261195;27;20058;-70
2022/11/08 04:55:43;;;;;;;12.13;3.53;;;;;;;;;;5262333;27;20002;-71
2022/11/08 04:58:08;;;;;;;11.60;3.08;;;;;;;;;;5263181;27;20036;-69
2022/11/08 05:00:34;;;;;;;9.13;2.80;;;;;;;;;;5260836;27;20002;-70
2022/11/08 05:03:00;;;;;;;5.30;2.53;;;;;;;;;;5261847;27;20001;-69
2022/11/08 05:05:25;;;;;;;9.95;3.20;;;;;;;;;;5263461;27;20006;-69
2022/11/08 05:07:51;;;;;;;;;;;;;;;;;;5263027;27;20356;-69
2022/11/08 05:10:16;;;;;;;8.48;3.12;;;;;;;;;;5241560;27;20016;-69
2022/11/08 05:12:41;;;;;;;7.50;3.37;;;;;;;;;;5259348;27;20006;-70
2022/11/08 05:15:07;;;;;;;9.13;2.85;;;;;;;;;;5262115;27;20324;-70
2022/11/08 05:17:32;;;;;;;;;;;;;;;;;;5261202;27;20008;-70
2022/11/08 05:25:25;;;;;;;7.40;3.10;;;;;;;;;;5263342;27;20077;-70
2022/11/08 05:27:50;;;;;;;;;;;;;;;;;;5261622;27;20403;-68
2022/11/08 05:30:15;;;;;;;12.15;4.32;;;;;;;;;;5261258;27;19939;-69
2022/11/08 05:32:40;;;;;;;8.68;3.53;;;;;;;;;;5261934;27;20056;-70
2022/11/08 05:35:05;;;;;;;;;;;;;;;;;;5263198;27;20040;-69
2022/11/08 05:37:30;;;;;;;8.18;3.45;;;;;;;;;;5260546;27;19947;-70
2022/11/08 05:39:56;;;;;;;8.00;3.35;;;;;;;;;;5259699;27;20021;-70
2022/11/08 05:42:21;;;;;;;10.40;3.53;;;;;;;;;;5262141;27;20016;-70
2022/11/08 05:44:46;;;;;;;7.97;3.20;;;;;;;;;;5260166;27;20175;-70
2022/11/08 05:47:11;;;;;;;8.02;3.05;;;;;;;;;;5261480;27;20020;-68
2022/11/08 05:49:36;;;;;;;14.02;3.50;;;;;;;;;;5260727;27;20001;-70
2022/11/08 05:52:02;;;;;;;9.27;3.42;;;;;;;;;;5263037;27;20002;-69
2022/11/08 05:54:27;;;;;;;6.65;3.20;;;;;;;;;;5259205;27;20002;-69
2022/11/08 05:56:52;;;;;;;;;;;;;;;;;;5262052;27;20100;-69
2022/11/08 05:59:17;;;;;;;9.13;4.07;;;;;;;;;;5243433;27;19928;-70
2022/11/08 06:01:42;;;;;;;12.10;3.50;;;;;;;;;;5259382;27;20418;-71
2022/11/08 06:04:07;;;;;;;8.00;3.53;;;;;;;;;;5263605;27;20002;-73
2022/11/08 06:06:33;;;;;;;6.60;3.30;;;;;;;;;;5263088;27;20093;-71
2022/11/08 06:08:58;;;;;;;13.27;3.78;;;;;;;;;;5262812;27;20009;-74
2022/11/08 06:11:25;;;;;;;8.98;3.37;;;;;;;;;;5259773;27;19993;-71
2022/11/08 06:13:50;;;;;;;7.65;2.92;;;;;;;;;;5262913;27;20013;-73
2022/11/08 06:16:16;;;;;;;;;;;;;;;;;;5260751;27;20316;-73
2022/11/08 06:18:41;;;;;;;7.45;3.03;;;;;;;;;;5259975;27;20220;-72
2022/11/08 06:21:09;;;;;;;8.77;4.28;;;;;;;;;;5262816;27;20064;-73
2022/11/08 06:23:34;;;;;;;6.40;3.12;;;;;;;;;;5260416;27;20296;-73
2022/11/08 06:25:59;;;;;;;;;;;;;;;;;;5259127;27;20008;-73
2022/11/08 06:28:25;;;;;;;4.80;2.87;;;;;;;;;;5260505;27;19932;-74
2022/11/08 06:30:50;;;;;;;5.93;3.17;;;;;;;;;;5261041;27;20001;-73
2022/11/08 06:33:15;;;;;;;7.87;3.97;;;;;;;;;;5260502;27;20016;-75
2022/11/08 06:35:41;;;;;;;7.90;3.53;;;;;;;;;;5261719;27;20033;-74
2022/11/08 06:38:06;;;;;;;;;;;;;;;;;;5260673;27;20068;-73
2022/11/08 06:40:32;;;;;;;6.90;3.00;;;;;;;;;;5262105;27;19941;-75
2022/11/08 06:42:57;;;;;;;;;;;;;;;;;;5262862;27;20147;-72
2022/11/08 06:45:22;;;;;;;6.07;2.87;;;;;;;;;;5243175;27;20369;-74
2022/11/08 06:47:48;;;;;;;;;;;;;;;;;;5262636;27;20006;-73
2022/11/08 06:50:13;;;;;;;6.47;3.35;;;;;;;;;;5262678;27;19987;-74
2022/11/08 06:52:39;;;;;;;3.17;2.37;;;;;;;;;;5262501;27;20001;-75
2022/11/08 06:55:05;;;;;;;7.05;2.40;;;;;;;;;;5260604;27;20418;-72
2022/11/08 06:57:30;;;;;;;;;;;;;;;;;;5263256;27;20010;-75
2022/11/08 06:59:55;;;;;;;12.60;2.65;;;;;;;;;;5260964;27;19929;-76
2022/11/08 07:02:20;;;;;;;11.63;4.93;;;;;;;;;;5258658;27;20039;-76
2022/11/08 07:04:46;;;;;;;8.80;3.70;;;;;;;;;;5258874;27;20339;-75
2022/11/08 07:07:11;;;;;;;7.75;3.22;;;;;;;;;;5260215;27;20006;-75
2022/11/08 07:09:36;;;;;;;9.57;2.87;;;;;;;;;;5260777;27;20002;-75
2022/11/08 07:12:01;;;;;;;10.50;3.70;;;;;;;;;;5260555;27;20316;-73
2022/11/08 07:14:26;;;;;;;;;;;;;;;;;;5260769;27;20316;-75
2022/11/08 07:16:52;;;;;;;14.30;2.90;;;;;;;;;;5261624;27;19940;-75
2022/11/08 07:19:17;;;;;;;;;;;;;;;;;;5261164;27;20507;-77
2022/11/08 07:21:42;;;;;;;6.50;2.53;;;;;;;;;;5260504;27;20038;-73
2022/11/08 07:24:07;;;;;;;4.75;2.50;;;;;;;;;;5260410;27;20032;-74
2022/11/08 07:26:32;;;;;;;2.87;1.92;;;;;;;;;;5259541;27;20036;-74
2022/11/08 07:28:58;;;;;;;8.55;2.50;;;;;;;;;;5261339;27;20010;-74
2022/11/08 07:31:23;;;;;;;4.93;1.87;;;;;;;;;;5261392;27;20080;-76
2022/11/08 07:33:48;;;;;;;;;;;;;;;;;;5243255;27;19998;-74
2022/11/08 07:36:14;;;;;;;8.63;2.55;;;;;;;;;;5261354;27;19929;-73
2022/11/08 07:38:39;;;;;;;;;;;;;;;;;;5261364;27;20127;-75
2022/11/08 07:41:04;;;;;;;4.28;2.20;;;;;;;;;;5240778;27;19972;-72
2022/11/08 07:43:29;;;;;;;6.32;2.00;;;;;;;;;;5259572;27;20012;-75
2022/11/08 07:45:56;;;;;;;5.90;2.50;;;;;;;;;;5258509;27;20013;-73
2022/11/08 07:48:21;;;;;;;4.55;2.00;;;;;;;;;;5261299;27;20010;-72
2022/11/08 07:50:46;;;;;;;;;;;;;;;;;;5261750;27;20012;-75
2022/11/08 07:53:12;;;;;;;3.35;2.20;;;;;;;;;;5262154;27;19960;-75
2022/11/08 07:55:38;;;;;;;16.60;2.47;;;;;;;;;;5260893;27;20430;-73
2022/11/08 07:58:04;;;;;;;5.65;2.03;;;;;;;;;;5259699;27;20037;-71
2022/11/08 08:00:29;;;;;;;;;;;;;;;;;;5258836;27;20004;-72
2022/11/08 08:03:00;;;;;;;8.50;1.98;;;;;;;;;;5240252;27;19925;-75
2022/11/08 08:05:27;;;;;;;4.35;1.90;;;;;;;;;;5260928;27;20101;-72
2022/11/08 08:07:55;;;;;;;5.57;2.00;;;;;;;;;;5259999;27;20006;-71
2022/11/08 08:10:20;;;;;;;5.87;2.03;;;;;;;;;;5260633;27;20015;-71
2022/11/08 08:12:45;;;;;;;;;;;;;;;;;;5261248;27;20076;-72
2022/11/08 08:15:10;;;;;;;4.03;2.05;;;;;;;;;;5260429;27;19972;-70
2022/11/08 08:17:36;;;;;;;9.50;2.58;;;;;;;;;;5260812;27;20009;-75
2022/11/08 08:20:01;;;;;;;5.50;2.10;;;;;;;;;;5260339;27;20297;-75
2022/11/08 08:22:26;;;;;;;4.60;1.77;;;;;;;;;;5260429;27;20376;-72
2022/11/08 08:24:51;;;;;;;3.58;1.83;;;;;;;;;;5261468;27;20001;-71
2022/11/08 08:27:16;;;;;;;4.87;2.62;;;;;;;;;;5261035;27;20372;-71
2022/11/08 08:29:42;;;;;;;7.15;2.28;;;;;;;;;;5262304;27;20355;-71
2022/11/08 08:32:07;;;;;;;4.97;2.03;;;;;;;;;;5260615;27;20002;-71
2022/11/08 08:34:32;;;;;;;7.35;2.28;;;;;;;;;;5262126;27;20371;-72
2022/11/08 08:36:57;;;;;;;4.37;1.90;;;;;;;;;;5259635;27;20009;-71
2022/11/08 08:39:22;;;;;;;;;;;;;;;;;;5259468;27;20057;-71
2022/11/08 08:41:47;;;;;;;8.90;2.10;;;;;;;;;;5262105;27;19971;-70
2022/11/08 08:44:13;;;;;;;8.93;2.55;;;;;;;;;;5259811;27;20033;-72
2022/11/08 08:46:38;;;;;;;;;;;;;;;;;;5262626;27;20437;-71
2022/11/08 08:49:03;;;;;;;8.05;2.40;;;;;;;;;;5240063;27;19960;-72
2022/11/08 08:51:28;;;;;;;5.12;2.20;;;;;;;;;;5260346;27;20036;-71
2022/11/08 08:53:53;;;;;;;7.07;2.25;;;;;;;;;;5260385;27;20004;-71
2022/11/08 08:56:19;;;;;;;5.20;2.25;;;;;;;;;;5259344;27;20013;-70
2022/11/08 08:58:44;;;;;;;20.42;12.65;;;;;;;;;;5257978;27;20034;-70
2022/11/08 09:01:10;;;;;;;6.20;2.42;;;;;;;;;;5261969;27;20013;-71
2022/11/08 09:03:35;;;;;;;5.25;2.25;;;;;;;;;;5258117;27;20102;-71
2022/11/08 09:06:00;;;;;;;;;;;;;;;;;;5262198;27;20001;-70
2022/11/08 09:08:26;;;;;;;5.05;2.12;;;;;;;;;;5260889;27;19932;-69
2022/11/08 09:10:51;;;;;;;;;;;;;;;;;;5258797;27;20112;-72
2022/11/08 09:13:16;;;;;;;6.85;2.40;;;;;;;;;;5240072;27;19928;-69
2022/11/08 09:15:41;;;;;;;6.07;2.90;;;;;;;;;;5260346;27;20328;-71
2022/11/08 09:18:08;;;;;;;5.07;2.25;;;;;;;;;;5258529;27;20008;-71
2022/11/08 09:20:33;;;;;;;5.87;2.62;;;;;;;;;;5240364;27;20040;-71
2022/11/08 09:22:58;;;;;;;;;;;;;;;;;;5260623;27;20006;-70
2022/11/08 09:25:23;;;;;;;4.85;2.12;;;;;;;;;;5243566;27;20010;-70
2022/11/08 09:27:48;;;;;;;6.78;2.62;;;;;;;;;;5262346;27;20031;-71
2022/11/08 09:30:14;;;;;;;5.60;2.20;;;;;;;;;;5263192;27;20002;-72
2022/11/08 09:32:39;;;;;;;4.25;1.90;;;;;;;;;;5261874;27;20435;-71
2022/11/08 09:35:04;;;;;;;;;;;;;;;;;;5259769;27;20324;-73
2022/11/08 09:37:29;;;;;;;8.10;2.28;;;;;;;;;;5260592;27;19929;-72
2022/11/08 09:39:54;;;;;;;5.87;2.67;;;;;;;;;;5260728;27;20022;-70
2022/11/08 09:42:21;;;;;;;6.50;2.20;;;;;;;;;;5261089;27;20006;-71
2022/11/08 09:44:52;;;;;;;5.22;2.00;;;;;;;;;;5260565;27;20032;-71
2022/11/08 09:47:25;;;;;;;9.80;2.67;;;;;;;;;;5262976;27;20020;-71
2022/11/08 09:50:03;;;;;;;4.78;2.20;;;;;;;;;;5261831;27;20017;-71
2022/11/08 09:52:29;;;;;;;4.50;2.20;;;;;;;;;;5262194;27;20002;-70
2022/11/08 09:55:03;;;;;;;5.25;2.15;;;;;;;;;;5259024;27;20013;-70
2022/11/08 09:57:42;;;;;;;4.15;1.95;;;;;;;;;;5261641;27;19995;-70
2022/11/08 10:00:11;;;;;;;8.30;3.45;;;;;;;;;;5261149;27;20024;-71
2022/11/08 10:02:36;;;;;;;8.30;2.42;;;;;;;;;;5261432;27;20005;-70
2022/11/08 10:05:01;;;;;;;;;;;;;;;;;;5261551;27;20001;-72
2022/11/08 10:07:31;;;;;;;6.85;3.03;;;;;;;;;;5261400;27;19933;-70
2022/11/08 10:10:15;;;;;;;6.35;2.45;;;;;;;;;;5258696;27;20013;-71
2022/11/08 10:12:46;;;;;;;3.58;2.03;;;;;;;;;;5241835;27;20017;-72
2022/11/08 10:15:29;;;;;;;8.18;2.85;;;;;;;;;;5258943;27;20002;-71
2022/11/08 10:18:13;;;;;;;4.20;2.35;;;;;;;;;;5259017;27;20006;-76
2022/11/08 10:20:55;;;;;;;188.73;24.30;;;;;;;;;;5261038;27;20017;-74
2022/11/08 10:23:35;;;;;;;4.20;2.50;;;;;;;;;;5260768;27;19993;-73
2022/11/08 10:26:04;;;;;;;8.35;2.97;;;;;;;;;;5260869;27;20040;-76
2022/11/08 10:28:35;;;;;;;7.10;2.33;;;;;;;;;;5262877;27;20372;-72
2022/11/08 10:31:01;;;;;;;7.75;2.60;;;;;;;;;;5259583;27;20013;-74
2022/11/08 10:33:44;;;;;;;7.30;2.30;;;;;;;;;;5262355;27;20033;-78
2022/11/08 10:36:12;;;;;;;18.10;3.33;;;;;;;;;;5261062;27;20044;-73
2022/11/08 10:38:58;;;;;;;6.32;2.20;;;;;;;;;;5260133;27;20092;-73
2022/11/08 10:41:23;;;;;;;4.00;2.10;;;;;;;;;;5261002;27;20017;-73
2022/11/08 10:43:54;;;;;;;4.37;1.90;;;;;;;;;;5259795;27;19997;-74
2022/11/08 10:46:33;;;;;;;7.15;2.10;;;;;;;;;;5262747;27;20212;-73
2022/11/08 10:49:07;;;;;;;5.50;2.28;;;;;;;;;;5261071;27;20013;-75
2022/11/08 10:51:32;;;;;;;3.72;2.03;;;;;;;;;;5260839;27;20004;-75
2022/11/08 10:53:57;;;;;;;5.68;2.33;;;;;;;;;;5260712;27;20026;-73
2022/11/08 10:56:23;;;;;;;14.98;3.17;;;;;;;;;;5263169;27;20067;-74
2022/11/08 10:58:48;;;;;;;8.73;2.67;;;;;;;;;;5258804;27;20001;-73
2022/11/08 11:01:21;;;;;;;10.75;2.50;;;;;;;;;;5260782;27;20406;-75
2022/11/08 11:03:47;;;;;;;8.68;2.28;;;;;;;;;;5262570;27;20002;-73
2022/11/08 11:06:39;;;;;;;14.13;3.37;;;;;;;;;;5260545;27;20039;-73
2022/11/08 11:09:16;;;;;;;11.65;2.85;;;;;;;;;;5258876;27;20037;-73
2022/11/08 11:11:41;;;;;;;5.78;2.28;;;;;;;;;;5261689;27;19993;-71
2022/11/08 11:14:14;;;;;;;7.78;2.97;;;;;;;;;;5261925;27;20335;-74
2022/11/08 11:16:55;;;;;;;6.78;2.33;;;;;;;;;;5261156;27;20009;-73
2022/11/08 11:19:20;;;;;;;9.43;2.30;;;;;;;;;;5260512;27;20032;-74
2022/11/08 11:21:48;;;;;;;7.60;2.42;;;;;;;;;;5242839;27;20001;-72
2022/11/08 11:24:17;;;;;;;4.32;2.28;;;;;;;;;;5262680;27;20041;-72
2022/11/08 11:26:44;;;;;;;3.83;2.10;;;;;;;;;;5260400;27;20400;-75
2022/11/08 11:29:17;;;;;;;6.68;2.67;;;;;;;;;;5262498;27;20006;-76
2022/11/08 11:31:44;;;;;;;5.43;2.17;;;;;;;;;;5259395;27;20009;-73
2022/11/08 11:34:15;;;;;;;4.65;2.40;;;;;;;;;;5259959;27;20036;-74
2022/11/08 11:36:41;;;;;;;4.55;2.00;;;;;;;;;;5261008;27;20052;-74
2022/11/08 11:39:11;;;;;;;7.72;2.22;;;;;;;;;;5260771;27;20022;-72
2022/11/08 11:41:41;;;;;;;3.83;2.00;;;;;;;;;;5262570;27;20019;-74
2022/11/08 11:44:16;;;;;;;6.10;2.22;;;;;;;;;;5258961;27;20376;-73
2022/11/08 11:47:00;;;;;;;8.50;3.08;;;;;;;;;;5258434;27;20418;-74
2022/11/08 11:49:27;;;;;;;6.53;2.28;;;;;;;;;;5259089;27;20006;-70
2022/11/08 11:51:53;;;;;;;5.30;2.05;;;;;;;;;;5260625;27;20020;-75
2022/11/08 11:54:21;;;;;;;3.30;2.00;;;;;;;;;;5261048;27;20331;-71
2022/11/08 11:56:57;;;;;;;8.85;2.55;;;;;;;;;;5262186;27;20044;-72
2022/11/08 11:59:38;;;;;;;8.38;2.55;;;;;;;;;;5260478;27;20017;-73
2022/11/08 12:02:07;;;;;;;4.68;2.70;;;;;;;;;;5261387;27;20358;-75
2022/11/08 12:04:35;;;;;;;4.50;2.20;;;;;;;;;;5258781;27;20001;-72
2022/11/08 12:07:00;;;;;;;7.10;2.53;;;;;;;;;;5258037;27;20501;-74
2022/11/08 12:09:31;;;;;;;5.62;2.50;;;;;;;;;;5261791;27;20002;-75
2022/11/08 12:12:02;;;;;;;5.60;2.20;;;;;;;;;;5262309;27;20053;-73
2022/11/08 12:14:34;;;;;;;8.65;2.30;;;;;;;;;;5260820;27;20020;-74
2022/11/08 12:17:06;;;;;;;4.62;2.53;;;;;;;;;;5259637;27;20006;-74
2022/11/08 12:19:39;;;;;;;9.63;2.80;;;;;;;;;;5258626;27;19998;-74
2022/11/08 12:22:15;;;;;;;7.57;2.00;;;;;;;;;;5259522;27;20396;-74
2022/11/08 12:24:49;;;;;;;7.90;2.03;;;;;;;;;;5261134;27;20001;-72
2022/11/08 12:27:29;;;;;;;6.28;2.47;;;;;;;;;;5262471;27;20045;-70
2022/11/08 12:29:57;;;;;;;6.87;3.03;;;;;;;;;;5260082;27;20024;-70
2022/11/08 12:32:35;;;;;;;5.65;2.33;;;;;;;;;;5259694;27;20012;-70
2022/11/08 12:35:05;;;;;;;8.20;2.40;;;;;;;;;;5260053;27;20375;-70
2022/11/08 12:37:48;;;;;;;8.18;2.30;;;;;;;;;;5260162;27;20012;-70
2022/11/08 12:40:17;;;;;;;7.70;3.00;;;;;;;;;;5260733;27;20423;-70
2022/11/08 12:42:46;;;;;;;8.45;2.67;;;;;;;;;;5259529;27;20014;-71
2022/11/08 12:45:30;;;;;;;6.20;2.47;;;;;;;;;;5261827;27;20002;-72
2022/11/08 12:48:01;;;;;;;6.32;2.33;;;;;;;;;;5241104;27;20006;-70
2022/11/08 12:50:26;;;;;;;6.10;2.42;;;;;;;;;;5259958;27;20002;-70
2022/11/08 12:52:54;;;;;;;7.57;2.50;;;;;;;;;;5259955;27;20024;-70
2022/11/08 12:55:46;;;;;;;7.80;2.37;;;;;;;;;;5260102;27;20002;-71
2022/11/08 12:58:17;;;;;;;5.35;2.30;;;;;;;;;;5257030;27;20044;-69
2022/11/08 13:00:43;;;;;;;9.48;2.85;;;;;;;;;;5262206;27;20002;-70
2022/11/08 13:03:18;;;;;;;5.75;2.50;;;;;;;;;;5242184;27;20011;-76
2022/11/08 13:05:52;;;;;;;7.28;2.42;;;;;;;;;;5261945;27;20002;-74
2022/11/08 13:08:29;;;;;;;10.93;2.80;;;;;;;;;;5261805;27;20011;-73
2022/11/08 13:10:59;;;;;;;7.00;2.87;;;;;;;;;;5263410;27;20072;-77
2022/11/08 13:13:44;;;;;;;6.85;2.42;;;;;;;;;;5263169;27;20010;-76
2022/11/08 13:16:09;;;;;;;5.93;2.55;;;;;;;;;;5261810;27;20047;-77
2022/11/08 13:18:35;;;;;;;4.62;2.17;;;;;;;;;;5261496;27;20017;-74
2022/11/08 13:21:20;;;;;;;8.13;2.58;;;;;;;;;;5262333;27;20006;-71
2022/11/08 13:23:45;;;;;;;5.50;2.58;;;;;;;;;;5260038;27;20032;-71
2022/11/08 13:26:24;;;;;;;5.25;2.15;;;;;;;;;;5260448;27;20403;-71
2022/11/08 13:28:50;;;;;;;6.20;2.75;;;;;;;;;;5260199;27;20025;-72
2022/11/08 13:31:17;;;;;;;4.32;2.30;;;;;;;;;;5260567;27;20017;-71
2022/11/08 13:33:50;;;;;;;5.78;2.45;;;;;;;;;;5261921;27;20396;-71
2022/11/08 13:36:22;;;;;;;7.05;2.70;;;;;;;;;;5260840;27;20028;-70
2022/11/08 13:38:54;;;;;;;6.22;3.05;;;;;;;;;;5260840;27;20033;-72
2022/11/08 13:41:21;;;;;;;5.47;2.35;;;;;;;;;;5261740;27;20033;-71
2022/11/08 13:43:47;;;;;;;9.63;3.03;;;;;;;;;;5260802;27;20032;-71
2022/11/08 13:46:21;;;;;;;7.53;3.67;;;;;;;;;;5241844;27;20339;-71
2022/11/08 13:48:56;;;;;;;8.80;2.70;;;;;;;;;;5260257;27;20006;-70
2022/11/08 13:51:25;;;;;;;5.82;2.42;;;;;;;;;;5261121;27;20024;-70
2022/11/08 13:53:53;;;;;;;5.75;2.35;;;;;;;;;;5261663;27;20044;-71
2022/11/08 13:56:23;;;;;;;11.35;2.67;;;;;;;;;;5260764;27;20015;-70
2022/11/08 13:58:48;;;;;;;6.95;2.60;;;;;;;;;;5260216;27;20040;-70
2022/11/08 14:01:16;;;;;;;10.05;3.33;;;;;;;;;;5262341;27;20042;-70
2022/11/08 14:03:41;;;;;;;9.98;3.00;;;;;;;;;;5259583;27;20058;-70
2022/11/08 14:06:12;;;;;;;8.57;2.45;;;;;;;;;;5262595;27;20001;-70
2022/11/08 14:08:46;;;;;;;9.15;2.40;;;;;;;;;;5260676;27;20065;-70
2022/11/08 14:11:18;;;;;;;12.18;3.25;;;;;;;;;;5260522;27;20012;-69
2022/11/08 14:14:02;;;;;;;8.23;3.42;;;;;;;;;;5260655;27;20002;-69
2022/11/08 14:16:29;;;;;;;10.63;3.05;;;;;;;;;;5260707;27;19993;-70
2022/11/08 14:19:04;;;;;;;6.37;2.35;;;;;;;;;;5261085;27;20065;-70
2022/11/08 14:21:29;;;;;;;4.05;2.25;;;;;;;;;;5261160;27;19994;-70
2022/11/08 14:23:55;;;;;;;4.62;2.15;;;;;;;;;;5262045;27;20024;-70
2022/11/08 14:26:21;;;;;;;8.73;3.67;;;;;;;;;;5260666;27;20011;-69
2022/11/08 14:28:47;;;;;;;5.72;2.60;;;;;;;;;;5262425;27;20010;-69
2022/11/08 14:31:24;;;;;;;5.25;2.65;;;;;;;;;;5259534;27;20352;-69
2022/11/08 14:33:49;;;;;;;8.18;2.90;;;;;;;;;;5261807;27;19998;-70
2022/11/08 14:36:15;;;;;;;8.15;2.58;;;;;;;;;;5258793;27;20103;-69
2022/11/08 14:38:48;;;;;;;9.15;2.40;;;;;;;;;;5259053;27;20021;-70
2022/11/08 14:41:15;;;;;;;8.98;2.53;;;;;;;;;;5257890;27;20010;-70
2022/11/08 14:43:42;;;;;;;7.82;2.70;;;;;;;;;;5260461;27;20032;-70
2022/11/08 14:46:11;;;;;;;8.68;2.42;;;;;;;;;;5256728;27;20053;-70
2022/11/08 14:48:46;;;;;;;9.55;2.85;;;;;;;;;;5258666;27;20388;-69
2022/11/08 14:51:12;;;;;;;6.12;2.30;;;;;;;;;;5259419;27;19997;-69
2022/11/08 14:53:44;;;;;;;7.37;3.05;;;;;;;;;;5259455;27;20347;-70
2022/11/08 14:56:15;;;;;;;8.68;3.10;;;;;;;;;;5258372;27;20300;-70
2022/11/08 14:58:41;;;;;;;7.10;2.50;;;;;;;;;;5258930;27;20100;-70
2022/11/08 15:01:07;;;;;;;6.18;2.25;;;;;;;;;;5258531;27;20025;-70
2022/11/08 15:03:32;;;;;;;6.15;2.65;;;;;;;;;;5257456;27;20033;-70
2022/11/08 15:05:59;;;;;;;5.68;2.28;;;;;;;;;;5259758;27;20010;-70
2022/11/08 15:08:33;;;;;;;6.28;2.37;;;;;;;;;;5262703;27;20045;-69
2022/11/08 15:11:03;;;;;;;6.35;2.45;;;;;;;;;;5261837;27;20006;-70
2022/11/08 15:13:30;;;;;;;4.68;2.17;;;;;;;;;;5259934;27;20069;-70
2022/11/08 15:16:00;;;;;;;6.28;2.80;;;;;;;;;;5260262;27;20036;-68
2022/11/08 15:18:26;;;;;;;4.97;2.35;;;;;;;;;;5240601;27;20080;-70
2022/11/08 15:20:53;;;;;;;5.78;2.58;;;;;;;;;;5262887;27;19989;-70
2022/11/08 15:23:33;;;;;;;5.70;2.35;;;;;;;;;;5259079;27;20392;-69